Danville, CA

4:44 PM PDT on September 16, 2014 (GMT -0700)
Hayward Executive | Change Station
CLOSE
Current Station
Airport
Location: Hayward,
Elevation: 46 ft
Nearby Weather Stations

Elev 46 ft 37.66 °N, 122.12 °W | Updated 50 minutes ago

Clear
Clear
80 °F
Feels Like 81 °F
N
15
Wind Variable Wind from West

Today
High -- | Low -- °F
--% Chance of Precip.
Yesterday
High -- | Low -- °F
Precip. -- in
6:50 AM 7:13 PM
Last Quarter, 41% visible
Pressure 29.85 in
Visibility 10.0 miles
Clouds Clear
Heat Index 81 °F
Dew Point 59 °F
Humidity 48%
Rainfall 0.00 in
Snow Depth 0 in , 0 in , 0 in
UV 5 out of 12
Pollen 5.20 out of 12
PM2.5 Good
Flu Activity Not available.
METAR KHWD 162254Z 28013KT 10SM CLR 27/15 A2982 RMK AO2 SLP106 T02670150

More Conditions Fewer Conditions

Pressure 29.85 in
Visibility 10.0 miles
Clouds Clear
Heat Index 81 °F
Dew Point 59 °F
Humidity 48%
Rainfall 0.00 in
Snow Depth 0 in , 0 in , 0 in
UV 5 out of 12
Pollen 5.20 out of 12
PM2.5 Good
Flu Activity Not available.
METAR KHWD 162254Z 28013KT 10SM CLR 27/15 A2982 RMK AO2 SLP106 T02670150

More Conditions Fewer Conditions

10-Day Weather Forecast

Almanac

Astronomy

Sep. 16, 2014 Rise Set
Actual Time 6:50 AM PDT 7:13 PM PDT
Civil Twilight 6:24 AM PDT 7:40 PM PDT
Nautical Twilight 5:53 AM PDT 8:11 PM PDT
Astronomical Twilight 5:21 AM PDT 8:42 PM PDT
Moon 12:09 AM PDT 2:37 PM PDT
Length of Visible Light 13h 15m
Length of Day
12h 23m
Tomorrow will be 2m 24s shorter.
Last Quarter, 41% of the Moon is Illuminated
Today
Last Quarter
Sep 24
New
Oct 1
First Quarter
Oct 8
Full
Oct 15
Last Quarter

Today's Extremes

State Highs State Lows

Community

WunderPhotos

Upload Photos

1,753,917 photos uploaded!

Nearby

Air Quality

  Air Quality AQ Index Pollutant
Yesterday Good
PM2.5
Yesterday Good
OZONE
Current Good
PM2.5
Tuesday Good
OZONE
Wednesday Good
OZONE
Thursday Good
OZONE
Friday Good
OZONE
Saturday Good
OZONE
Sunday Good
OZONE

Snow Depth

Station Depth Elevation
CSS Lab 0 in 6900 ft
Adin Mountain 0 in 6200 ft
Echo Peak 0 in 7800 ft
Leavitt Meadows 0 in 7200 ft

Earthquake Activity

City Distance Mag. Time & Date
Cobb, California 80 miles 2.8 1:23 PM PDT
2014-09-16
Covelo, California 148 miles 3.3 1:17 PM PDT
2014-09-14
Cobb, California 84 miles 2.7 11:07 AM PDT
2014-09-14
Minimum magnitude displayed is 2.5.

Coastal Water Temperatures

Place Temperature
No Stations Reporting

Nearby Weather Stations